Time;durP1;ratioP1;P1;durP2;ratioP2;P2;SDS_P1;SDS_P2;PMS_P1;PMS_P2;Temp;Humidity;BMP_temperature;BMP_pressure;BME280_temperature;BME280_humidity;BME280_pressure;Samples;Min_cycle;Max_cycle;Signal;HPM_P1;HPM_P2
2021/03/07 00:02:03;;;;;;;14.50;9.87;;;;;;;3.97;49.79;96431.25;5075508;28;20292;-84
2021/03/07 00:04:29;;;;;;;14.87;9.83;;;;;;;3.95;49.88;96417.00;5061500;28;20698;-84
2021/03/07 00:06:55;;;;;;;14.30;10.00;;;;;;;3.86;50.04;96423.59;5041560;28;20276;-83
2021/03/07 00:09:21;;;;;;;14.90;10.20;;;;;;;3.76;50.03;96422.66;5045210;28;20229;-84
2021/03/07 00:11:47;;;;;;;14.70;9.67;;;;;;;3.77;50.48;96422.53;5056072;28;20308;-84
2021/03/07 00:14:13;;;;;;;15.87;10.03;;;;;;;3.74;50.10;96421.97;5052743;28;20251;-82
2021/03/07 00:16:39;;;;;;;18.67;11.20;;;;;;;3.82;50.08;96424.75;5038697;28;20194;-81
2021/03/07 00:19:06;;;;;;;15.40;9.67;;;;;;;3.89;50.06;96420.81;5054604;28;20329;-80
2021/03/07 00:21:32;;;;;;;16.00;9.63;;;;;;;3.96;49.60;96419.44;5035149;28;20230;-82
2021/03/07 00:23:58;;;;;;;14.97;9.67;;;;;;;3.96;49.72;96413.53;5051747;28;20308;-82
2021/03/07 00:26:24;;;;;;;12.63;8.80;;;;;;;4.00;49.69;96425.13;5052832;28;20292;-83
2021/03/07 00:28:49;;;;;;;12.50;8.67;;;;;;;3.94;50.15;96418.72;5043211;28;20224;-82
2021/03/07 00:31:15;;;;;;;10.47;7.90;;;;;;;3.84;50.45;96417.81;5054799;28;20236;-81
2021/03/07 00:33:41;;;;;;;12.00;8.10;;;;;;;3.81;50.54;96413.75;5054055;28;20806;-83
2021/03/07 00:36:08;;;;;;;10.60;7.47;;;;;;;3.75;50.80;96415.94;5028329;28;20225;-82
2021/03/07 00:38:34;;;;;;;11.93;7.60;;;;;;;3.73;51.00;96418.59;5050796;28;20228;-83
2021/03/07 00:41:00;;;;;;;11.77;8.03;;;;;;;3.77;50.59;96403.91;5034434;28;20205;-83
2021/03/07 00:43:26;;;;;;;9.90;7.80;;;;;;;3.66;51.09;96417.41;5035013;28;20217;-84
2021/03/07 00:45:52;;;;;;;10.40;7.77;;;;;;;3.41;51.79;96412.53;5033733;28;20290;-82
2021/03/07 00:48:18;;;;;;;11.77;6.80;;;;;;;3.46;51.32;96416.34;5035605;28;20255;-82
2021/03/07 00:50:55;;;;;;;13.57;6.60;;;;;;;3.52;51.59;96417.63;5034004;28;20245;-83
2021/03/07 00:53:22;;;;;;;7.47;5.63;;;;;;;3.58;51.47;96412.09;5050210;28;20201;-83
2021/03/07 00:55:47;;;;;;;5.67;5.07;;;;;;;3.58;51.35;96411.28;5054018;28;20665;-82
2021/03/07 00:58:13;;;;;;;9.60;6.07;;;;;;;3.60;50.84;96412.81;5037462;28;20275;-83
2021/03/07 01:00:41;;;;;;;7.23;5.93;;;;;;;3.54;51.33;96405.59;5036472;28;20224;-84
2021/03/07 01:03:09;;;;;;;9.33;5.83;;;;;;;3.50;50.87;96406.75;5039282;28;20230;-84
2021/03/07 01:05:35;;;;;;;6.10;5.50;;;;;;;3.36;51.29;96399.31;5036108;28;20697;-82
2021/03/07 01:08:02;;;;;;;6.50;5.80;;;;;;;3.44;51.72;96399.59;5040296;28;20575;-84
2021/03/07 01:10:32;;;;;;;6.13;5.40;;;;;;;3.55;51.37;96396.22;5034522;28;20222;-84
2021/03/07 01:12:59;;;;;;;6.80;5.93;;;;;;;3.60;51.03;96387.34;5053474;28;20236;-81
2021/03/07 01:15:27;;;;;;;9.53;6.00;;;;;;;3.57;51.17;96394.38;5052700;28;20222;-82
2021/03/07 01:17:53;;;;;;;6.93;5.73;;;;;;;3.55;51.21;96389.41;5045821;28;20236;-84
2021/03/07 01:20:20;;;;;;;6.63;5.83;;;;;;;3.53;50.46;96393.81;5053203;28;20201;-83
2021/03/07 01:22:46;;;;;;;6.93;5.67;;;;;;;3.52;50.18;96382.00;5039260;28;20197;-84
2021/03/07 01:25:13;;;;;;;6.80;5.77;;;;;;;3.53;50.05;96373.44;5041345;28;20400;-84
2021/03/07 01:27:39;;;;;;;9.10;6.00;;;;;;;3.57;50.24;96381.66;5034146;28;20225;-82
2021/03/07 01:30:07;;;;;;;9.60;5.47;;;;;;;3.62;49.46;96377.03;5051423;28;20232;-83
2021/03/07 01:32:34;;;;;;;7.27;5.40;;;;;;;3.55;49.44;96365.69;5051652;28;20654;-81
2021/03/07 01:34:59;;;;;;;6.57;5.87;;;;;;;3.52;49.68;96368.44;5054012;28;20197;-83
2021/03/07 01:37:25;;;;;;;6.13;5.33;;;;;;;3.40;49.87;96368.44;5036362;28;20630;-81
2021/03/07 01:39:53;;;;;;;5.80;5.20;;;;;;;3.41;49.70;96364.97;5048744;28;20222;-82
2021/03/07 01:42:20;;;;;;;6.93;5.53;;;;;;;3.41;49.79;96356.53;5033406;28;20610;-83
2021/03/07 01:44:46;;;;;;;7.53;5.57;;;;;;;3.46;49.69;96359.56;5038800;28;20229;-81
2021/03/07 01:47:17;;;;;;;5.93;5.30;;;;;;;3.48;49.55;96360.22;5058530;28;20208;-82
2021/03/07 01:49:43;;;;;;;5.87;5.27;;;;;;;3.21;50.04;96350.38;5053638;28;20266;-83
2021/03/07 01:52:09;;;;;;;5.77;5.10;;;;;;;3.26;49.79;96347.50;5047417;28;20420;-81
2021/03/07 01:54:35;;;;;;;5.27;4.77;;;;;;;3.21;49.83;96349.56;5033790;28;20226;-82
2021/03/07 01:57:02;;;;;;;6.10;5.40;;;;;;;3.17;50.28;96346.41;5034398;28;20376;-81
2021/03/07 01:59:32;;;;;;;6.17;5.57;;;;;;;3.16;50.59;96346.53;5049110;28;20259;-83
2021/03/07 02:02:01;;;;;;;6.43;5.57;;;;;;;3.15;51.35;96339.81;5046995;28;20806;-85
2021/03/07 02:04:27;;;;;;;5.93;5.33;;;;;;;3.06;51.34;96334.50;5037349;28;20229;-82
2021/03/07 02:06:52;;;;;;;7.13;5.70;;;;;;;3.07;51.44;96338.66;5049055;28;20279;-80
2021/03/07 02:09:18;;;;;;;8.13;5.67;;;;;;;3.09;52.11;96330.88;5055682;28;20229;-83
2021/03/07 02:11:44;;;;;;;6.03;5.43;;;;;;;3.09;51.88;96336.78;5038075;28;20716;-84
2021/03/07 02:14:11;;;;;;;6.60;5.90;;;;;;;2.96;52.43;96337.81;5038005;28;20198;-83
2021/03/07 02:16:38;;;;;;;6.27;5.67;;;;;;;2.82;52.43;96331.19;5041907;28;20269;-83
2021/03/07 02:19:06;;;;;;;10.47;5.73;;;;;;;2.83;52.30;96337.88;5053319;28;20279;-80
2021/03/07 02:21:35;;;;;;;7.20;5.20;;;;;;;2.93;52.04;96335.47;5064127;28;20220;-84
2021/03/07 02:24:04;;;;;;;8.93;6.00;;;;;;;2.95;52.26;96331.09;5077857;28;20254;-84
2021/03/07 02:26:32;;;;;;;6.60;5.90;;;;;;;3.02;52.30;96329.72;5072937;28;20252;-81
2021/03/07 02:28:58;;;;;;;8.97;6.00;;;;;;;3.04;51.98;96336.34;5077013;28;20274;-80
2021/03/07 02:31:27;;;;;;;7.13;5.60;;;;;;;3.04;51.99;96331.25;5074740;28;20294;-83
2021/03/07 02:33:59;;;;;;;5.93;5.30;;;;;;;3.04;51.96;96333.78;5076952;28;20235;-83
2021/03/07 02:36:29;;;;;;;8.20;6.07;;;;;;;3.02;52.15;96329.72;5052820;28;20222;-84
2021/03/07 02:39:00;;;;;;;7.80;5.90;;;;;;;2.99;52.48;96328.22;5044015;28;20264;-81
2021/03/07 02:41:29;;;;;;;7.50;5.77;;;;;;;2.97;52.60;96321.63;5068960;28;20247;-83
2021/03/07 02:43:57;;;;;;;7.70;6.37;;;;;;;2.99;52.89;96323.13;5077157;28;20266;-82
2021/03/07 02:46:25;;;;;;;6.27;5.57;;;;;;;2.97;53.16;96321.63;5057613;28;20256;-84
2021/03/07 02:48:55;;;;;;;7.50;5.77;;;;;;;2.85;53.13;96320.78;5042950;28;20289;-82
2021/03/07 02:51:23;;;;;;;6.53;5.80;;;;;;;2.90;53.14;96315.34;5035929;28;20253;-81
2021/03/07 02:53:51;;;;;;;6.57;5.97;;;;;;;2.74;53.13;96310.56;5035829;28;20241;-81
2021/03/07 02:56:21;;;;;;;6.83;5.83;;;;;;;2.57;53.80;96308.41;5036729;28;20197;-81
2021/03/07 02:58:49;;;;;;;6.50;5.67;;;;;;;2.43;53.93;96302.59;5055969;28;20222;-80
2021/03/07 03:01:17;;;;;;;8.03;6.17;;;;;;;2.51;53.90;96303.75;5055652;28;20240;-83
2021/03/07 03:03:46;;;;;;;7.37;6.07;;;;;;;2.60;53.52;96306.47;5055863;28;20233;-84
2021/03/07 03:06:15;;;;;;;6.67;5.93;;;;;;;2.59;53.61;96302.31;5039905;28;20607;-83
2021/03/07 03:08:45;;;;;;;6.37;5.70;;;;;;;2.67;53.70;96294.97;5035830;28;20225;-82
2021/03/07 03:11:12;;;;;;;6.73;6.10;;;;;;;2.63;53.98;96303.72;5036179;28;20190;-84
2021/03/07 03:13:39;;;;;;;6.00;5.40;;;;;;;2.57;54.40;96298.25;5036035;28;20199;-82
2021/03/07 03:16:06;;;;;;;6.47;5.73;;;;;;;2.51;53.95;96288.50;5052028;28;20303;-81
2021/03/07 03:18:36;;;;;;;6.67;5.90;;;;;;;2.57;53.89;96278.72;5035535;28;20238;-79
2021/03/07 03:21:05;;;;;;;7.50;6.20;;;;;;;2.56;54.03;96286.47;5052108;28;20225;-81
2021/03/07 03:23:31;;;;;;;6.83;5.80;;;;;;;2.57;54.34;96286.34;5055402;28;20225;-81
2021/03/07 03:25:57;;;;;;;6.90;6.20;;;;;;;2.57;54.32;96283.81;5039528;28;20607;-83
2021/03/07 03:28:24;;;;;;;6.50;5.77;;;;;;;2.51;54.68;96285.97;5034907;28;20237;-81
2021/03/07 03:30:51;;;;;;;6.77;6.07;;;;;;;2.62;53.85;96286.03;5051663;28;20316;-82
2021/03/07 03:33:18;;;;;;;7.13;5.10;;;;;;;2.65;53.63;96276.47;5042722;28;20234;-82
2021/03/07 03:35:44;;;;;;;6.40;5.80;;;;;;;2.72;53.24;96279.34;5050492;28;20639;-80
2021/03/07 03:38:10;;;;;;;7.70;5.30;;;;;;;2.75;53.23;96279.94;5044152;28;20232;-83
2021/03/07 03:40:38;;;;;;;6.97;5.97;;;;;;;2.78;53.31;96278.91;5049969;28;20231;-83
2021/03/07 03:43:07;;;;;;;7.30;6.07;;;;;;;2.77;53.27;96275.56;5046101;28;20287;-83
2021/03/07 03:45:35;;;;;;;7.27;5.90;;;;;;;2.80;53.22;96278.81;5034400;28;20226;-80
2021/03/07 03:48:05;;;;;;;6.27;5.53;;;;;;;2.75;53.72;96274.03;5041524;28;20233;-81
2021/03/07 03:50:35;;;;;;;6.63;5.47;;;;;;;2.73;53.39;96265.72;5038288;28;20229;-79
2021/03/07 03:53:03;;;;;;;6.13;5.50;;;;;;;2.71;53.15;96270.09;5035430;28;20202;-82
2021/03/07 03:55:30;;;;;;;6.97;5.93;;;;;;;2.65;53.23;96273.09;5033209;28;20256;-83
2021/03/07 03:58:01;;;;;;;6.47;5.80;;;;;;;2.66;53.47;96267.91;5032602;28;20616;-81
2021/03/07 04:00:29;;;;;;;7.17;6.20;;;;;;;2.66;53.69;96264.56;5044942;28;20232;-79
2021/03/07 04:02:57;;;;;;;6.87;6.07;;;;;;;2.64;54.06;96271.47;5044406;28;20284;-80
2021/03/07 04:05:25;;;;;;;7.20;6.33;;;;;;;2.63;53.92;96267.31;5031387;28;20232;-81
2021/03/07 04:07:53;;;;;;;6.57;5.70;;;;;;;2.64;53.63;96274.84;5032694;28;20222;-80
2021/03/07 04:10:20;;;;;;;7.30;6.20;;;;;;;2.55;53.71;96267.06;5033202;28;20225;-81
2021/03/07 04:12:48;;;;;;;7.47;6.13;;;;;;;2.33;54.36;96273.66;5050398;28;20221;-80
2021/03/07 04:15:16;;;;;;;7.53;6.33;;;;;;;2.36;54.20;96272.63;5067242;28;20232;-79
2021/03/07 04:17:43;;;;;;;7.27;6.57;;;;;;;2.29;54.94;96274.00;5046030;28;20245;-80
2021/03/07 04:20:10;;;;;;;7.00;6.20;;;;;;;2.21;55.01;96274.53;5041208;28;20193;-82
2021/03/07 04:22:36;;;;;;;7.73;6.40;;;;;;;1.98;55.81;96276.16;5050142;28;20723;-80
2021/03/07 04:25:04;;;;;;;7.07;6.20;;;;;;;2.09;55.63;96275.41;5048818;28;20225;-81
2021/03/07 04:27:32;;;;;;;7.13;6.30;;;;;;;2.13;55.36;96266.63;5042388;28;20217;-80
2021/03/07 04:30:00;;;;;;;7.83;6.13;;;;;;;2.17;54.90;96267.25;5039963;28;20244;-80
2021/03/07 04:32:26;;;;;;;8.07;6.13;;;;;;;2.21;55.11;96272.00;5046324;28;20272;-81
2021/03/07 04:34:52;;;;;;;8.40;6.70;;;;;;;2.21;55.03;96269.47;5050731;28;20201;-81
2021/03/07 04:37:18;;;;;;;7.57;6.23;;;;;;;2.16;54.95;96268.16;5049929;28;20229;-80
2021/03/07 04:39:47;;;;;;;8.63;6.90;;;;;;;2.21;54.90;96264.38;5047489;28;20214;-81
2021/03/07 04:42:14;;;;;;;7.93;6.80;;;;;;;2.21;55.10;96264.38;5046795;28;20221;-82
2021/03/07 04:44:40;;;;;;;8.53;7.03;;;;;;;2.27;54.60;96263.16;5030112;28;20242;-80
2021/03/07 04:47:06;;;;;;;9.43;7.10;;;;;;;2.11;55.19;96265.97;5032576;28;20634;-81
2021/03/07 04:49:33;;;;;;;9.60;7.10;;;;;;;2.00;55.26;96258.28;5041520;28;20226;-80
2021/03/07 04:51:59;;;;;;;11.77;6.90;;;;;;;1.97;55.30;96255.94;5030684;28;20229;-81
2021/03/07 04:54:25;;;;;;;8.13;6.80;;;;;;;1.91;55.94;96258.94;5031592;28;20256;-81
2021/03/07 04:56:51;;;;;;;8.50;7.60;;;;;;;1.82;56.07;96255.28;5032568;28;20229;-81
2021/03/07 04:59:17;;;;;;;7.23;6.37;;;;;;;1.86;56.32;96256.69;5050233;28;20194;-82
2021/03/07 05:01:43;;;;;;;7.47;6.53;;;;;;;1.95;56.19;96263.66;5052739;28;20202;-82
2021/03/07 05:04:09;;;;;;;9.53;6.80;;;;;;;2.03;56.03;96253.78;5051675;28;20232;-80
2021/03/07 05:06:38;;;;;;;8.63;7.20;;;;;;;2.14;55.75;96252.22;5040034;28;20248;-82
2021/03/07 05:09:05;;;;;;;7.47;6.67;;;;;;;2.16;55.83;96245.28;5050247;28;20232;-81
2021/03/07 05:11:31;;;;;;;8.37;6.20;;;;;;;2.11;56.13;96248.19;5051601;28;20232;-83
2021/03/07 05:13:57;;;;;;;11.30;6.80;;;;;;;2.13;55.73;96238.69;5067612;28;20205;-82
2021/03/07 05:16:24;;;;;;;8.60;7.03;;;;;;;2.12;55.99;96244.69;5066322;28;20612;-81
2021/03/07 05:18:50;;;;;;;8.93;7.23;;;;;;;2.14;56.16;96237.78;5038152;28;20616;-81
2021/03/07 05:21:16;;;;;;;9.10;7.30;;;;;;;2.10;55.77;96233.06;5047769;28;20225;-83
2021/03/07 05:23:42;;;;;;;8.70;7.30;;;;;;;2.07;55.85;96229.00;5052601;28;20235;-82
2021/03/07 05:26:08;;;;;;;16.60;13.37;;;;;;;2.07;56.27;96234.88;5040860;28;20682;-80
2021/03/07 05:28:35;;;;;;;19.70;13.87;;;;;;;2.03;59.70;96232.66;5043255;28;20222;-80
2021/03/07 05:31:02;;;;;;;14.03;9.93;;;;;;;2.06;56.29;96237.53;5031587;28;20325;-82
2021/03/07 05:33:28;;;;;;;12.17;7.57;;;;;;;2.05;56.42;96233.38;5045861;28;20286;-83
2021/03/07 05:35:54;;;;;;;9.47;7.50;;;;;;;2.11;56.12;96239.75;5055687;28;20259;-83
2021/03/07 05:38:20;;;;;;;7.63;6.47;;;;;;;1.84;56.90;96242.47;5035881;28;20222;-82
2021/03/07 05:40:46;;;;;;;9.03;7.50;;;;;;;1.79;57.15;96245.34;5035763;28;20228;-83
2021/03/07 05:43:12;;;;;;;9.13;6.97;;;;;;;1.75;57.17;96243.91;5052362;28;20221;-85
2021/03/07 05:45:39;;;;;;;7.07;6.37;;;;;;;1.73;57.22;96244.03;5055434;28;20252;-82
2021/03/07 05:48:05;;;;;;;10.90;6.83;;;;;;;1.80;56.82;96244.41;5055306;28;20245;-84
2021/03/07 05:50:32;;;;;;;7.97;6.90;;;;;;;1.87;57.01;96243.09;5054614;28;20278;-80
2021/03/07 05:52:58;;;;;;;8.07;6.77;;;;;;;1.84;56.78;96235.69;5056200;28;20197;-81
2021/03/07 05:55:26;;;;;;;7.97;6.73;;;;;;;1.73;57.36;96238.16;5043376;28;20222;-82
2021/03/07 05:57:52;;;;;;;8.43;6.90;;;;;;;1.66;57.05;96235.22;5036885;28;20624;-80
2021/03/07 06:00:20;;;;;;;7.37;6.60;;;;;;;1.69;57.21;96235.03;5046356;28;20221;-83
2021/03/07 06:02:45;;;;;;;8.97;6.80;;;;;;;1.73;57.66;96230.56;5056744;28;20233;-81
2021/03/07 06:05:13;;;;;;;8.43;6.43;;;;;;;1.76;56.93;96227.78;5054224;28;20373;-83
2021/03/07 06:07:40;;;;;;;8.40;7.07;;;;;;;1.78;56.75;96231.03;5041373;28;20221;-83
2021/03/07 06:10:15;;;;;;;9.03;6.60;;;;;;;1.78;57.37;96230.22;5043682;28;20218;-81
2021/03/07 06:12:41;;;;;;;7.63;6.57;;;;;;;1.84;56.60;96235.69;5055616;28;20224;-81
2021/03/07 06:15:10;;;;;;;8.20;6.30;;;;;;;1.91;56.39;96216.56;5048750;28;20226;-81
2021/03/07 06:17:40;;;;;;;7.20;6.50;;;;;;;1.99;56.50;96221.91;5036237;28;20291;-80
2021/03/07 06:20:10;;;;;;;7.10;5.90;;;;;;;2.07;56.21;96218.84;5042784;28;20209;-81
2021/03/07 06:22:38;;;;;;;7.27;6.17;;;;;;;2.12;56.09;96221.06;5075481;28;20224;-81
2021/03/07 06:25:11;;;;;;;7.03;6.27;;;;;;;2.19;55.55;96220.50;5059404;28;20226;-84
2021/03/07 06:27:37;;;;;;;12.20;5.60;;;;;;;2.90;80.05;96208.53;5052757;28;20225;-82
2021/03/07 06:30:07;;;;;;;7.83;5.70;;;;;;;3.36;58.39;96203.34;5062882;28;20314;-81
2021/03/07 06:32:35;;;;;;;7.37;6.30;;;;;;;3.28;55.28;96201.38;5064204;28;20222;-83
2021/03/07 06:35:02;;;;;;;7.57;6.40;;;;;;;3.27;54.94;96198.97;5037281;28;20198;-83
2021/03/07 06:37:28;;;;;;;11.57;6.33;;;;;;;3.32;54.54;96196.88;5056184;28;20222;-84
2021/03/07 06:39:54;;;;;;;9.00;6.77;;;;;;;3.28;54.82;96196.28;5055083;28;20711;-83
2021/03/07 06:42:22;;;;;;;7.83;6.40;;;;;;;3.36;54.28;96190.63;5059693;28;20229;-84
2021/03/07 06:44:53;;;;;;;7.37;6.50;;;;;;;3.41;54.36;96196.19;5060211;28;20624;-83
2021/03/07 06:47:19;;;;;;;8.33;6.87;;;;;;;3.59;53.91;96196.50;5059709;28;20221;-81
2021/03/07 06:49:45;;;;;;;8.67;6.87;;;;;;;3.75;53.39;96197.72;5060032;28;20860;-79
2021/03/07 06:52:13;;;;;;;9.27;6.47;;;;;;;3.92;53.10;96210.88;5045627;28;20634;-80
2021/03/07 06:54:40;;;;;;;7.63;6.47;;;;;;;3.97;52.87;96203.69;5049056;28;20355;-81
2021/03/07 06:57:07;;;;;;;9.27;6.63;;;;;;;3.96;52.94;96207.19;5056236;28;20229;-80
2021/03/07 06:59:35;;;;;;;8.93;7.13;;;;;;;4.00;52.73;96206.81;5053799;28;20222;-80
2021/03/07 07:02:11;;;;;;;7.47;6.67;;;;;;;4.14;52.60;96201.44;5047486;28;20209;-80
2021/03/07 07:04:42;;;;;;;8.87;7.17;;;;;;;4.37;52.19;96196.25;5038638;28;20237;-83
2021/03/07 07:07:09;;;;;;;8.40;6.33;;;;;;;4.51;51.81;96195.94;5047031;28;20225;-83
2021/03/07 07:09:36;;;;;;;7.53;6.73;;;;;;;4.72;51.69;96191.66;5047939;28;20226;-82
2021/03/07 07:12:04;;;;;;;7.07;6.37;;;;;;;4.83;51.34;96199.22;5033970;28;20597;-84
2021/03/07 07:14:35;;;;;;;34.60;8.80;;;;;;;5.51;58.32;96189.31;5045853;28;20237;-80
2021/03/07 07:17:02;;;;;;;24.80;7.37;;;;;;;6.20;56.45;96187.53;5042312;28;20201;-82
2021/03/07 07:19:28;;;;;;;29.43;6.80;;;;;;;6.69;53.58;96177.28;5044300;28;20198;-80
2021/03/07 07:21:54;;;;;;;8.57;6.27;;;;;;;7.12;51.24;96179.31;5032966;28;20198;-80
2021/03/07 07:24:20;;;;;;;9.43;6.57;;;;;;;7.51;50.10;96180.72;5038349;28;20677;-83
2021/03/07 07:26:49;;;;;;;7.30;6.60;;;;;;;7.73;46.47;96182.09;5052424;28;20572;-83
2021/03/07 07:29:17;;;;;;;7.57;6.77;;;;;;;7.53;46.14;96172.91;5049476;28;20213;-79
2021/03/07 07:31:46;;;;;;;8.30;7.37;;;;;;;7.33;46.55;96168.81;5049308;28;20218;-82
2021/03/07 07:34:18;;;;;;;7.03;6.33;;;;;;;7.14;46.91;96178.19;5041589;28;20221;-81
2021/03/07 07:36:51;;;;;;;9.20;8.30;;;;;;;7.04;47.09;96176.63;5034278;28;20257;-84
2021/03/07 07:39:26;;;;;;;10.17;8.03;;;;;;;7.09;46.67;96180.41;5033508;28;20603;-84
2021/03/07 07:41:52;;;;;;;8.17;7.37;;;;;;;7.18;47.22;96182.09;5034537;28;20206;-83
2021/03/07 07:44:28;;;;;;;8.83;7.70;;;;;;;7.25;46.81;96179.78;5037319;28;20279;-80
2021/03/07 07:46:57;;;;;;;8.63;7.73;;;;;;;7.21;47.04;96171.59;5051520;28;20219;-84
2021/03/07 07:49:45;;;;;;;8.40;7.60;;;;;;;7.24;46.96;96173.06;5049714;28;20194;-82
2021/03/07 07:52:36;;;;;;;8.53;7.63;;;;;;;7.40;46.94;96168.13;5034171;28;20206;-84
2021/03/07 07:55:11;;;;;;;8.97;8.00;;;;;;;7.59;47.18;96167.22;5036135;28;20320;-84
2021/03/07 07:57:47;;;;;;;8.93;8.03;;;;;;;7.84;46.11;96175.97;5034197;28;20732;-83
2021/03/07 08:00:17;;;;;;;8.90;8.00;;;;;;;8.01;46.02;96169.25;5036620;28;20193;-81
2021/03/07 08:02:56;;;;;;;9.23;7.90;;;;;;;8.04;46.35;96171.53;5033374;28;20222;-84
2021/03/07 08:05:42;;;;;;;9.07;8.17;;;;;;;8.28;45.48;96171.72;5046550;28;20586;-83
2021/03/07 08:08:10;;;;;;;9.30;8.40;;;;;;;8.48;45.57;96162.94;5038712;28;20253;-84
2021/03/07 08:10:50;;;;;;;9.63;8.00;;;;;;;8.71;44.67;96163.25;5032994;28;20233;-82
2021/03/07 08:13:47;;;;;;;9.17;8.27;;;;;;;8.94;44.27;96161.00;5045871;28;20236;-82
2021/03/07 08:16:36;;;;;;;8.93;8.03;;;;;;;9.18;44.05;96153.44;5039160;28;20226;-84
2021/03/07 08:19:02;;;;;;;9.13;8.20;;;;;;;9.38;43.59;96160.91;5043529;28;20240;-83
2021/03/07 08:21:28;;;;;;;10.30;8.00;;;;;;;9.20;43.70;96154.09;5052329;28;20631;-84
2021/03/07 08:23:58;;;;;;;9.10;8.20;;;;;;;9.35;44.44;96159.44;5054591;28;20212;-84
2021/03/07 08:26:26;;;;;;;9.60;8.67;;;;;;;9.28;43.82;96145.59;5063103;28;20200;-80
2021/03/07 08:28:53;;;;;;;8.73;7.83;;;;;;;9.12;44.62;96143.75;5054119;28;20230;-85
2021/03/07 08:31:33;;;;;;;10.17;9.17;;;;;;;9.40;44.40;96148.69;5035100;28;20552;-84
2021/03/07 08:34:23;;;;;;;9.20;8.30;;;;;;;9.72;43.20;96135.94;5050867;28;20283;-85
2021/03/07 08:36:59;;;;;;;10.30;8.47;;;;;;;9.92;42.92;96141.59;5051104;28;20224;-83
2021/03/07 08:39:29;;;;;;;8.73;7.90;;;;;;;10.07;43.25;96134.88;5052002;28;20236;-82
2021/03/07 08:42:00;;;;;;;8.33;7.43;;;;;;;10.22;42.82;96129.91;5035931;28;20217;-80
2021/03/07 08:44:28;;;;;;;9.03;8.13;;;;;;;10.37;42.47;96126.56;5032799;28;20229;-81
2021/03/07 08:46:54;;;;;;;9.50;8.60;;;;;;;10.53;42.62;96128.31;5044580;28;20222;-84
2021/03/07 08:49:23;;;;;;;10.00;8.93;;;;;;;10.76;42.28;96117.34;5051202;28;20228;-83
2021/03/07 08:51:51;;;;;;;19.23;15.07;;;;;;;10.88;41.71;96111.66;5049366;28;20225;-83
2021/03/07 08:54:20;;;;;;;10.97;9.17;;;;;;;11.01;41.45;96111.13;5014116;28;20206;-83
2021/03/07 08:56:48;;;;;;;8.30;7.57;;;;;;;11.15;41.45;96102.72;5047314;28;20222;-85
2021/03/07 08:59:14;;;;;;;10.13;7.83;;;;;;;11.16;41.28;96104.31;5052007;28;20287;-83
2021/03/07 09:01:41;;;;;;;9.27;7.90;;;;;;;11.30;41.13;96102.81;5049715;28;20231;-85
2021/03/07 09:04:09;;;;;;;8.70;7.80;;;;;;;11.36;40.90;96100.34;5050762;28;20229;-81
2021/03/07 09:06:36;;;;;;;9.07;8.27;;;;;;;11.38;40.74;96102.75;5050032;28;20198;-82
2021/03/07 09:09:07;;;;;;;8.87;7.97;;;;;;;11.39;40.64;96099.22;5041270;28;20228;-85
2021/03/07 09:11:33;;;;;;;8.87;7.97;;;;;;;11.50;41.19;96096.28;5048193;28;20232;-82
2021/03/07 09:14:00;;;;;;;8.90;8.07;;;;;;;11.60;40.58;96088.31;5048998;28;20221;-85
2021/03/07 09:16:37;;;;;;;8.80;8.00;;;;;;;11.61;40.55;96089.91;5042081;28;20590;-84
2021/03/07 09:19:21;;;;;;;8.97;8.07;;;;;;;10.88;41.86;96090.25;5049831;28;20231;-84
2021/03/07 09:21:47;;;;;;;9.30;8.40;;;;;;;10.90;42.91;96096.03;5034166;28;20206;-83
2021/03/07 09:24:13;;;;;;;9.10;8.20;;;;;;;11.08;42.46;96094.03;5039331;28;20708;-83
2021/03/07 09:26:39;;;;;;;8.23;7.43;;;;;;;11.27;41.65;96090.25;5048667;28;20208;-85
2021/03/07 09:29:05;;;;;;;9.20;8.30;;;;;;;11.29;41.58;96075.44;5049059;28;20282;-85
2021/03/07 09:31:33;;;;;;;54.60;45.53;;;;;;;11.26;41.91;96076.56;5050758;28;20218;-85
2021/03/07 09:34:00;;;;;;;14.17;12.63;;;;;;;11.39;41.88;96076.81;5042087;28;20218;-84
2021/03/07 09:36:32;;;;;;;8.67;7.87;;;;;;;11.54;41.99;96081.28;5037122;28;20225;-84
2021/03/07 09:39:01;;;;;;;9.07;8.17;;;;;;;11.70;41.80;96079.41;5037709;28;20226;-84
2021/03/07 09:41:30;;;;;;;8.67;7.77;;;;;;;11.79;41.58;96069.03;5037597;28;20225;-85
2021/03/07 09:43:57;;;;;;;8.63;7.83;;;;;;;11.87;41.45;96064.63;5038487;28;20611;-82
2021/03/07 09:46:24;;;;;;;9.70;7.93;;;;;;;11.93;41.39;96058.00;5044830;28;20251;-83
2021/03/07 09:48:55;;;;;;;8.47;7.67;;;;;;;12.02;41.22;96056.94;5034973;28;20228;-82
2021/03/07 09:51:21;;;;;;;8.53;7.73;;;;;;;12.07;41.62;96054.66;5042186;28;20221;-85
2021/03/07 09:53:48;;;;;;;9.73;8.30;;;;;;;12.01;41.82;96043.22;5040978;28;20194;-82
2021/03/07 09:56:29;;;;;;;9.30;8.40;;;;;;;11.62;42.14;96033.00;5047697;28;20225;-82
2021/03/07 09:59:11;;;;;;;9.00;8.17;;;;;;;11.22;43.11;96031.47;5021305;28;20225;-83
2021/03/07 10:01:44;;;;;;;8.80;8.00;;;;;;;11.11;43.41;96042.16;5038658;28;20193;-80
2021/03/07 10:04:41;;;;;;;9.77;8.87;;;;;;;11.27;43.32;96030.97;5032861;28;20221;-83
2021/03/07 10:07:33;;;;;;;9.60;8.70;;;;;;;11.49;43.37;96037.94;4989590;28;20207;-82
2021/03/07 10:10:01;;;;;;;9.00;8.10;;;;;;;11.71;43.11;96026.84;4982839;28;20232;-83
2021/03/07 10:12:54;;;;;;;8.83;7.93;;;;;;;11.89;43.02;96020.59;4990356;28;20298;-83
2021/03/07 10:15:26;;;;;;;36.70;31.13;;;;;;;12.06;43.19;96012.53;5000978;28;20232;-82
2021/03/07 10:17:53;;;;;;;21.03;17.13;;;;;;;12.26;43.47;96009.47;5037171;28;20259;-82
2021/03/07 10:20:19;;;;;;;11.07;9.93;;;;;;;12.30;42.88;96008.13;5033388;28;20238;-84
2021/03/07 10:22:47;;;;;;;9.07;8.03;;;;;;;12.45;42.69;96004.59;5035563;28;20964;-84
2021/03/07 10:25:26;;;;;;;9.57;7.87;;;;;;;12.55;42.03;96004.31;5035479;28;20725;-85
2021/03/07 10:27:57;;;;;;;9.67;8.60;;;;;;;12.54;42.35;96005.28;5035887;28;20243;-83
2021/03/07 10:30:35;;;;;;;9.50;8.60;;;;;;;12.55;41.63;96006.88;5035379;28;20236;-84
2021/03/07 10:33:14;;;;;;;8.77;7.97;;;;;;;12.59;42.61;96004.75;5036221;28;20230;-82
2021/03/07 10:35:58;;;;;;;11.87;10.77;;;;;;;12.59;42.66;95999.59;5035944;28;20236;-83
2021/03/07 10:38:24;;;;;;;18.63;16.53;;;;;;;12.41;42.28;95998.16;5036170;28;20443;-85
2021/03/07 10:40:51;;;;;;;10.23;9.23;;;;;;;12.31;42.04;96000.22;5035282;28;20237;-85
2021/03/07 10:43:17;;;;;;;9.30;8.50;;;;;;;12.20;42.33;96002.41;5036203;28;20264;-85
2021/03/07 10:45:43;;;;;;;9.83;8.83;;;;;;;12.17;43.44;96000.19;5035900;28;20209;-83
2021/03/07 10:48:10;;;;;;;9.87;8.90;;;;;;;12.10;43.37;95994.94;5036175;28;20256;-83
2021/03/07 10:50:40;;;;;;;9.57;8.57;;;;;;;12.15;43.38;95991.81;5035151;28;20225;-84
2021/03/07 10:53:06;;;;;;;9.87;8.87;;;;;;;12.18;43.64;95994.84;5035559;28;20242;-83
2021/03/07 10:55:32;;;;;;;11.23;9.00;;;;;;;12.03;43.72;95988.84;5035468;28;20221;-85
2021/03/07 10:57:59;;;;;;;9.57;8.67;;;;;;;12.06;43.52;95988.50;5035989;28;20226;-84
2021/03/07 11:00:25;;;;;;;9.87;8.87;;;;;;;12.05;44.14;95986.91;5035133;28;20230;-85
2021/03/07 11:02:52;;;;;;;9.70;8.70;;;;;;;11.86;44.45;95989.97;5035180;28;20234;-83
2021/03/07 11:05:18;;;;;;;10.33;8.87;;;;;;;11.91;44.20;95982.53;5034927;28;20892;-84
2021/03/07 11:07:45;;;;;;;9.37;8.47;;;;;;;12.09;44.59;95975.25;5035001;28;20296;-84
2021/03/07 11:10:13;;;;;;;9.50;8.50;;;;;;;12.04;43.68;95975.78;5035252;28;20226;-83
2021/03/07 11:12:40;;;;;;;9.67;8.77;;;;;;;11.93;43.74;95980.56;5035543;28;20206;-83
2021/03/07 11:15:09;;;;;;;14.67;13.07;;;;;;;11.65;45.04;95970.75;5035574;28;20226;-85
2021/03/07 11:17:36;;;;;;;10.23;9.23;;;;;;;11.49;45.14;95970.91;5035247;28;20229;-83
2021/03/07 11:20:03;;;;;;;13.27;8.97;;;;;;;11.36;45.45;95966.28;5034356;28;20226;-84
2021/03/07 11:22:29;;;;;;;9.10;8.13;;;;;;;11.28;45.65;95960.41;5049303;28;20190;-85
2021/03/07 11:24:55;;;;;;;9.53;8.47;;;;;;;11.20;46.41;95955.28;5045553;28;20225;-84
2021/03/07 11:27:21;;;;;;;9.30;8.30;;;;;;;11.02;46.66;95955.56;5034246;28;20801;-85
2021/03/07 11:29:47;;;;;;;8.90;7.93;;;;;;;10.97;46.99;95950.09;5033673;28;20226;-83
2021/03/07 11:32:14;;;;;;;10.40;8.10;;;;;;;10.93;46.78;95943.72;5041475;28;20303;-82
2021/03/07 11:34:40;;;;;;;9.83;8.13;;;;;;;10.89;47.65;95934.72;5053650;28;20233;-85
2021/03/07 11:37:06;;;;;;;10.67;8.50;;;;;;;10.95;47.69;95939.19;5054486;28;20202;-85
2021/03/07 11:39:32;;;;;;;10.30;8.40;;;;;;;10.94;47.28;95940.16;5041682;28;20411;-85
2021/03/07 11:41:59;;;;;;;9.73;7.67;;;;;;;10.90;47.49;95933.75;5045108;28;20222;-83
2021/03/07 11:44:25;;;;;;;9.10;7.97;;;;;;;11.11;47.24;95931.38;5042965;28;20260;-82